sensor_id;sensor_type;location;lat;lon;timestamp;pressure;altitude;pressure_sealevel;temperature;humidity
79048;BME280;68680;50.764;6.120;2023-05-07T00:01:04;99403.31;;;13.12;86.47
79048;BME280;68680;50.764;6.120;2023-05-07T00:03:30;99396.28;;;13.11;86.58
79048;BME280;68680;50.764;6.120;2023-05-07T00:05:56;99396.66;;;13.14;86.23
79048;BME280;68680;50.764;6.120;2023-05-07T00:08:22;99404.06;;;13.24;86.26
79048;BME280;68680;50.764;6.120;2023-05-07T00:10:47;99393.34;;;13.24;85.82
79048;BME280;68680;50.764;6.120;2023-05-07T00:13:13;99388.81;;;13.25;85.88
79048;BME280;68680;50.764;6.120;2023-05-07T00:15:39;99389.03;;;13.23;85.97
79048;BME280;68680;50.764;6.120;2023-05-07T00:18:06;99391.25;;;13.26;85.95
79048;BME280;68680;50.764;6.120;2023-05-07T00:20:32;99394.59;;;13.33;85.50
79048;BME280;68680;50.764;6.120;2023-05-07T00:22:58;99398.03;;;13.34;86.00
79048;BME280;68680;50.764;6.120;2023-05-07T00:25:24;99393.03;;;13.37;85.70
79048;BME280;68680;50.764;6.120;2023-05-07T00:27:49;99392.44;;;13.35;85.71
79048;BME280;68680;50.764;6.120;2023-05-07T00:30:15;99390.34;;;13.37;85.21
79048;BME280;68680;50.764;6.120;2023-05-07T00:32:44;99390.00;;;13.34;85.01
79048;BME280;68680;50.764;6.120;2023-05-07T00:35:11;99388.72;;;13.36;85.70
79048;BME280;68680;50.764;6.120;2023-05-07T00:37:37;99387.16;;;13.40;85.19
79048;BME280;68680;50.764;6.120;2023-05-07T00:40:04;99394.66;;;13.38;85.28
79048;BME280;68680;50.764;6.120;2023-05-07T00:42:30;99389.38;;;13.43;85.58
79048;BME280;68680;50.764;6.120;2023-05-07T00:44:56;99390.44;;;13.42;85.47
79048;BME280;68680;50.764;6.120;2023-05-07T00:47:22;99383.13;;;13.38;85.21
79048;BME280;68680;50.764;6.120;2023-05-07T00:49:48;99383.06;;;13.49;84.19
79048;BME280;68680;50.764;6.120;2023-05-07T00:52:17;99387.25;;;13.45;85.26
79048;BME280;68680;50.764;6.120;2023-05-07T00:54:45;99383.78;;;13.45;85.16
79048;BME280;68680;50.764;6.120;2023-05-07T00:57:11;99385.31;;;13.41;84.88
79048;BME280;68680;50.764;6.120;2023-05-07T00:59:37;99379.94;;;13.41;85.51
79048;BME280;68680;50.764;6.120;2023-05-07T01:02:03;99385.56;;;13.39;85.47
79048;BME280;68680;50.764;6.120;2023-05-07T01:04:29;99385.56;;;13.39;85.35
79048;BME280;68680;50.764;6.120;2023-05-07T01:06:56;99387.09;;;13.35;84.96
79048;BME280;68680;50.764;6.120;2023-05-07T01:09:25;99378.09;;;13.41;84.55
79048;BME280;68680;50.764;6.120;2023-05-07T01:11:52;99380.84;;;13.46;84.03
79048;BME280;68680;50.764;6.120;2023-05-07T01:14:19;99377.78;;;13.38;84.58
79048;BME280;68680;50.764;6.120;2023-05-07T01:16:45;99382.63;;;13.41;85.02
79048;BME280;68680;50.764;6.120;2023-05-07T01:19:14;99380.28;;;13.44;84.43
79048;BME280;68680;50.764;6.120;2023-05-07T01:21:47;99374.03;;;13.39;85.46
79048;BME280;68680;50.764;6.120;2023-05-07T01:24:15;99369.25;;;13.41;85.87
79048;BME280;68680;50.764;6.120;2023-05-07T01:26:42;99361.69;;;13.38;84.82
79048;BME280;68680;50.764;6.120;2023-05-07T01:29:07;99365.13;;;13.33;84.89
79048;BME280;68680;50.764;6.120;2023-05-07T01:31:34;99365.59;;;13.30;85.72
79048;BME280;68680;50.764;6.120;2023-05-07T01:34:01;99365.28;;;13.27;86.26
79048;BME280;68680;50.764;6.120;2023-05-07T01:36:30;99369.31;;;13.29;84.81
79048;BME280;68680;50.764;6.120;2023-05-07T01:38:58;99365.34;;;13.15;85.60
79048;BME280;68680;50.764;6.120;2023-05-07T01:41:26;99363.00;;;13.19;85.92
79048;BME280;68680;50.764;6.120;2023-05-07T01:43:53;99360.22;;;13.13;85.86
79048;BME280;68680;50.764;6.120;2023-05-07T01:46:20;99365.94;;;13.05;86.12
79048;BME280;68680;50.764;6.120;2023-05-07T01:48:46;99369.13;;;13.02;86.52
79048;BME280;68680;50.764;6.120;2023-05-07T01:51:12;99369.94;;;13.03;86.50
79048;BME280;68680;50.764;6.120;2023-05-07T01:53:39;99356.53;;;13.03;86.45
79048;BME280;68680;50.764;6.120;2023-05-07T01:56:06;99348.97;;;13.00;86.14
79048;BME280;68680;50.764;6.120;2023-05-07T01:58:33;99344.28;;;13.07;85.96
79048;BME280;68680;50.764;6.120;2023-05-07T02:00:59;99346.00;;;12.96;86.33
79048;BME280;68680;50.764;6.120;2023-05-07T02:03:25;99353.28;;;12.84;86.62
79048;BME280;68680;50.764;6.120;2023-05-07T02:05:51;99351.97;;;12.87;86.69
79048;BME280;68680;50.764;6.120;2023-05-07T02:08:17;99347.25;;;12.77;86.27
79048;BME280;68680;50.764;6.120;2023-05-07T02:10:42;99347.06;;;12.67;87.58
79048;BME280;68680;50.764;6.120;2023-05-07T02:13:08;99349.66;;;12.62;87.82
79048;BME280;68680;50.764;6.120;2023-05-07T02:15:35;99355.38;;;12.54;87.89
79048;BME280;68680;50.764;6.120;2023-05-07T02:18:04;99359.91;;;12.53;87.26
79048;BME280;68680;50.764;6.120;2023-05-07T02:20:30;99358.69;;;12.44;87.63
79048;BME280;68680;50.764;6.120;2023-05-07T02:22:56;99364.34;;;12.48;87.90
79048;BME280;68680;50.764;6.120;2023-05-07T02:25:22;99357.81;;;12.55;87.61
79048;BME280;68680;50.764;6.120;2023-05-07T02:27:47;99377.28;;;12.51;87.78
79048;BME280;68680;50.764;6.120;2023-05-07T02:30:14;99378.44;;;12.43;88.03
79048;BME280;68680;50.764;6.120;2023-05-07T02:32:41;99382.88;;;12.38;88.29
79048;BME280;68680;50.764;6.120;2023-05-07T02:35:08;99384.88;;;12.30;88.19
79048;BME280;68680;50.764;6.120;2023-05-07T02:37:33;99387.22;;;12.27;88.66
79048;BME280;68680;50.764;6.120;2023-05-07T02:39:59;99382.09;;;12.25;89.18
79048;BME280;68680;50.764;6.120;2023-05-07T02:42:25;99389.31;;;12.25;88.56
79048;BME280;68680;50.764;6.120;2023-05-07T02:44:51;99385.69;;;12.31;88.40
79048;BME280;68680;50.764;6.120;2023-05-07T02:47:16;99393.59;;;12.38;88.55
79048;BME280;68680;50.764;6.120;2023-05-07T02:49:43;99383.22;;;12.41;88.08
79048;BME280;68680;50.764;6.120;2023-05-07T02:52:09;99374.34;;;12.52;87.62
79048;BME280;68680;50.764;6.120;2023-05-07T02:54:35;99380.94;;;12.61;87.20
79048;BME280;68680;50.764;6.120;2023-05-07T02:57:01;99379.31;;;12.60;87.49
79048;BME280;68680;50.764;6.120;2023-05-07T02:59:26;99369.09;;;12.57;87.69
79048;BME280;68680;50.764;6.120;2023-05-07T03:01:52;99377.78;;;12.64;87.81
79048;BME280;68680;50.764;6.120;2023-05-07T03:04:18;99376.19;;;12.63;87.49
79048;BME280;68680;50.764;6.120;2023-05-07T03:06:45;99375.47;;;12.68;86.96
79048;BME280;68680;50.764;6.120;2023-05-07T03:09:11;99377.56;;;12.66;87.84
79048;BME280;68680;50.764;6.120;2023-05-07T03:11:36;99366.63;;;12.67;87.78
79048;BME280;68680;50.764;6.120;2023-05-07T03:14:02;99370.19;;;12.73;87.61
79048;BME280;68680;50.764;6.120;2023-05-07T03:16:28;99368.88;;;12.75;87.71
79048;BME280;68680;50.764;6.120;2023-05-07T03:18:54;99363.06;;;12.79;87.21
79048;BME280;68680;50.764;6.120;2023-05-07T03:21:19;99357.44;;;12.92;87.01
79048;BME280;68680;50.764;6.120;2023-05-07T03:23:47;99355.94;;;12.84;86.89
79048;BME280;68680;50.764;6.120;2023-05-07T03:26:12;99345.88;;;12.74;86.49
79048;BME280;68680;50.764;6.120;2023-05-07T03:28:38;99352.19;;;12.68;86.92
79048;BME280;68680;50.764;6.120;2023-05-07T03:31:04;99351.03;;;12.64;86.27
79048;BME280;68680;50.764;6.120;2023-05-07T03:33:32;99357.81;;;12.55;86.82
79048;BME280;68680;50.764;6.120;2023-05-07T03:35:58;99355.06;;;12.50;87.32
79048;BME280;68680;50.764;6.120;2023-05-07T03:38:24;99355.50;;;12.47;87.30
79048;BME280;68680;50.764;6.120;2023-05-07T03:40:51;99353.91;;;12.46;87.58
79048;BME280;68680;50.764;6.120;2023-05-07T03:43:17;99359.41;;;12.40;87.35
79048;BME280;68680;50.764;6.120;2023-05-07T03:45:43;99361.81;;;12.41;87.90
79048;BME280;68680;50.764;6.120;2023-05-07T03:48:08;99356.47;;;12.41;87.99
79048;BME280;68680;50.764;6.120;2023-05-07T03:50:34;99351.47;;;12.45;87.77
79048;BME280;68680;50.764;6.120;2023-05-07T03:53:00;99360.41;;;12.50;87.02
79048;BME280;68680;50.764;6.120;2023-05-07T03:55:26;99362.06;;;12.40;87.23
79048;BME280;68680;50.764;6.120;2023-05-07T03:57:53;99362.97;;;12.45;87.70
79048;BME280;68680;50.764;6.120;2023-05-07T04:00:19;99363.81;;;12.46;87.32
79048;BME280;68680;50.764;6.120;2023-05-07T04:02:45;99363.63;;;12.52;87.50
79048;BME280;68680;50.764;6.120;2023-05-07T04:05:10;99365.16;;;12.48;87.49
79048;BME280;68680;50.764;6.120;2023-05-07T04:07:36;99359.72;;;12.43;88.16
79048;BME280;68680;50.764;6.120;2023-05-07T04:10:02;99356.13;;;12.38;87.99
79048;BME280;68680;50.764;6.120;2023-05-07T04:12:28;99369.84;;;12.41;88.39
79048;BME280;68680;50.764;6.120;2023-05-07T04:14:55;99366.84;;;12.38;87.85
79048;BME280;68680;50.764;6.120;2023-05-07T04:17:21;99373.47;;;12.35;88.52
79048;BME280;68680;50.764;6.120;2023-05-07T04:19:46;99364.41;;;12.36;88.22
79048;BME280;68680;50.764;6.120;2023-05-07T04:22:12;99365.88;;;12.44;88.07
79048;BME280;68680;50.764;6.120;2023-05-07T04:24:38;99357.81;;;12.55;87.83
79048;BME280;68680;50.764;6.120;2023-05-07T04:27:04;99358.00;;;12.65;86.66
79048;BME280;68680;50.764;6.120;2023-05-07T04:29:29;99356.59;;;12.74;86.58
79048;BME280;68680;50.764;6.120;2023-05-07T04:31:56;99354.00;;;12.80;85.97
79048;BME280;68680;50.764;6.120;2023-05-07T04:34:22;99353.00;;;12.69;86.16
79048;BME280;68680;50.764;6.120;2023-05-07T04:36:48;99354.38;;;12.71;86.84
79048;BME280;68680;50.764;6.120;2023-05-07T04:39:17;99356.81;;;12.73;86.27
79048;BME280;68680;50.764;6.120;2023-05-07T04:41:42;99353.97;;;12.63;86.73
79048;BME280;68680;50.764;6.120;2023-05-07T04:44:08;99356.38;;;12.64;86.91
79048;BME280;68680;50.764;6.120;2023-05-07T04:46:34;99350.69;;;12.61;86.67
79048;BME280;68680;50.764;6.120;2023-05-07T04:49:01;99353.16;;;12.62;87.20
79048;BME280;68680;50.764;6.120;2023-05-07T04:51:27;99360.13;;;12.63;87.21
79048;BME280;68680;50.764;6.120;2023-05-07T04:53:52;99368.72;;;12.65;87.21
79048;BME280;68680;50.764;6.120;2023-05-07T04:56:18;99366.72;;;12.72;86.90
79048;BME280;68680;50.764;6.120;2023-05-07T04:58:44;99364.53;;;12.69;87.22
79048;BME280;68680;50.764;6.120;2023-05-07T05:01:10;99368.34;;;12.73;87.23
79048;BME280;68680;50.764;6.120;2023-05-07T05:03:35;99365.03;;;12.83;87.26
79048;BME280;68680;50.764;6.120;2023-05-07T05:06:03;99366.88;;;12.83;86.84
79048;BME280;68680;50.764;6.120;2023-05-07T05:08:30;99376.25;;;12.97;86.80
79048;BME280;68680;50.764;6.120;2023-05-07T05:10:55;99378.94;;;12.97;86.43
79048;BME280;68680;50.764;6.120;2023-05-07T05:13:21;99379.00;;;13.02;86.79
79048;BME280;68680;50.764;6.120;2023-05-07T05:15:47;99382.28;;;13.04;87.22
79048;BME280;68680;50.764;6.120;2023-05-07T05:18:13;99384.34;;;13.13;87.17
79048;BME280;68680;50.764;6.120;2023-05-07T05:20:38;99386.53;;;13.33;86.03
79048;BME280;68680;50.764;6.120;2023-05-07T05:23:06;99390.94;;;13.39;85.52
79048;BME280;68680;50.764;6.120;2023-05-07T05:25:31;99392.28;;;13.42;85.45
79048;BME280;68680;50.764;6.120;2023-05-07T05:27:57;99394.16;;;13.41;86.07
79048;BME280;68680;50.764;6.120;2023-05-07T05:30:23;99392.13;;;13.48;85.70
79048;BME280;68680;50.764;6.120;2023-05-07T05:32:49;99397.09;;;13.56;86.05
79048;BME280;68680;50.764;6.120;2023-05-07T05:35:15;99401.16;;;13.59;85.80
79048;BME280;68680;50.764;6.120;2023-05-07T05:37:40;99402.69;;;13.72;85.87
79048;BME280;68680;50.764;6.120;2023-05-07T05:40:09;99404.97;;;13.80;85.01
79048;BME280;68680;50.764;6.120;2023-05-07T05:42:34;99405.50;;;13.82;85.15
79048;BME280;68680;50.764;6.120;2023-05-07T05:45:00;99405.09;;;13.90;85.14
79048;BME280;68680;50.764;6.120;2023-05-07T05:47:26;99411.50;;;13.89;85.24
79048;BME280;68680;50.764;6.120;2023-05-07T05:49:52;99412.81;;;13.86;85.21
79048;BME280;68680;50.764;6.120;2023-05-07T05:52:17;99414.69;;;13.86;85.40
79048;BME280;68680;50.764;6.120;2023-05-07T05:54:43;99403.47;;;13.89;85.95
79048;BME280;68680;50.764;6.120;2023-05-07T05:57:10;99408.16;;;13.98;85.91
79048;BME280;68680;50.764;6.120;2023-05-07T05:59:36;99410.19;;;14.08;85.65
79048;BME280;68680;50.764;6.120;2023-05-07T06:02:02;99411.06;;;14.14;85.38
79048;BME280;68680;50.764;6.120;2023-05-07T06:04:28;99411.13;;;14.19;85.63
79048;BME280;68680;50.764;6.120;2023-05-07T06:06:54;99405.59;;;14.25;85.36
79048;BME280;68680;50.764;6.120;2023-05-07T06:09:20;99400.34;;;14.35;85.28
79048;BME280;68680;50.764;6.120;2023-05-07T06:11:45;99407.47;;;14.47;84.93
79048;BME280;68680;50.764;6.120;2023-05-07T06:14:12;99409.72;;;14.55;84.43
79048;BME280;68680;50.764;6.120;2023-05-07T06:16:38;99413.84;;;14.62;84.40
79048;BME280;68680;50.764;6.120;2023-05-07T06:19:04;99410.28;;;14.78;83.68
79048;BME280;68680;50.764;6.120;2023-05-07T06:21:30;99407.84;;;14.77;83.70
79048;BME280;68680;50.764;6.120;2023-05-07T06:23:55;99414.38;;;14.86;84.14
79048;BME280;68680;50.764;6.120;2023-05-07T06:26:21;99423.44;;;14.80;84.18
79048;BME280;68680;50.764;6.120;2023-05-07T06:28:47;99423.56;;;14.90;83.35
79048;BME280;68680;50.764;6.120;2023-05-07T06:31:17;99428.34;;;14.88;83.54
79048;BME280;68680;50.764;6.120;2023-05-07T06:33:44;99427.75;;;14.81;82.78
79048;BME280;68680;50.764;6.120;2023-05-07T06:36:10;99422.75;;;14.90;82.71
79048;BME280;68680;50.764;6.120;2023-05-07T06:38:35;99424.09;;;14.92;81.86
79048;BME280;68680;50.764;6.120;2023-05-07T06:41:01;99424.09;;;14.92;81.29
79048;BME280;68680;50.764;6.120;2023-05-07T06:43:27;99421.91;;;15.16;81.41
79048;BME280;68680;50.764;6.120;2023-05-07T06:45:53;99422.81;;;15.27;80.89
79048;BME280;68680;50.764;6.120;2023-05-07T06:48:20;99424.00;;;15.36;80.66
79048;BME280;68680;50.764;6.120;2023-05-07T06:50:46;99416.00;;;15.46;80.05
79048;BME280;68680;50.764;6.120;2023-05-07T06:53:11;99427.72;;;15.61;79.20
79048;BME280;68680;50.764;6.120;2023-05-07T06:55:37;99423.97;;;15.63;79.52
79048;BME280;68680;50.764;6.120;2023-05-07T06:58:03;99421.00;;;15.59;80.10
79048;BME280;68680;50.764;6.120;2023-05-07T07:00:29;99428.56;;;15.67;80.09
79048;BME280;68680;50.764;6.120;2023-05-07T07:02:55;99434.56;;;15.79;79.48
79048;BME280;68680;50.764;6.120;2023-05-07T07:05:22;99430.38;;;15.93;78.30
79048;BME280;68680;50.764;6.120;2023-05-07T07:07:48;99438.00;;;16.07;77.82
79048;BME280;68680;50.764;6.120;2023-05-07T07:10:14;99437.53;;;16.20;76.58
79048;BME280;68680;50.764;6.120;2023-05-07T07:12:39;99441.19;;;16.03;76.74
79048;BME280;68680;50.764;6.120;2023-05-07T07:15:07;99444.13;;;15.97;76.24
79048;BME280;68680;50.764;6.120;2023-05-07T07:17:33;99444.50;;;16.16;75.65
79048;BME280;68680;50.764;6.120;2023-05-07T07:19:58;99439.72;;;16.28;75.42
79048;BME280;68680;50.764;6.120;2023-05-07T07:22:25;99437.88;;;16.33;75.72
79048;BME280;68680;50.764;6.120;2023-05-07T07:24:51;99440.00;;;16.31;75.33
79048;BME280;68680;50.764;6.120;2023-05-07T07:27:17;99438.97;;;16.37;75.63
79048;BME280;68680;50.764;6.120;2023-05-07T07:29:43;99444.16;;;16.54;75.73
79048;BME280;68680;50.764;6.120;2023-05-07T07:32:08;99434.56;;;16.73;71.85
79048;BME280;68680;50.764;6.120;2023-05-07T07:34:34;99443.22;;;16.80;70.79
79048;BME280;68680;50.764;6.120;2023-05-07T07:37:00;99437.84;;;16.80;71.77
79048;BME280;68680;50.764;6.120;2023-05-07T07:39:27;99438.94;;;16.90;71.87
79048;BME280;68680;50.764;6.120;2023-05-07T07:41:53;99442.75;;;17.14;70.65
79048;BME280;68680;50.764;6.120;2023-05-07T07:44:18;99438.19;;;17.24;69.85
79048;BME280;68680;50.764;6.120;2023-05-07T07:46:44;99438.75;;;17.37;69.25
79048;BME280;68680;50.764;6.120;2023-05-07T07:49:10;99436.34;;;17.50;67.94
79048;BME280;68680;50.764;6.120;2023-05-07T07:51:35;99444.16;;;17.52;66.65
79048;BME280;68680;50.764;6.120;2023-05-07T07:54:01;99441.72;;;17.55;66.49
79048;BME280;68680;50.764;6.120;2023-05-07T07:56:29;99439.06;;;17.60;66.90
79048;BME280;68680;50.764;6.120;2023-05-07T07:58:54;99442.28;;;17.52;67.45
79048;BME280;68680;50.764;6.120;2023-05-07T08:01:20;99440.91;;;17.55;67.78
79048;BME280;68680;50.764;6.120;2023-05-07T08:03:46;99450.06;;;17.59;68.15
79048;BME280;68680;50.764;6.120;2023-05-07T08:06:12;99454.16;;;17.51;68.43
79048;BME280;68680;50.764;6.120;2023-05-07T08:08:37;99446.38;;;17.70;65.58
79048;BME280;68680;50.764;6.120;2023-05-07T08:11:03;99449.06;;;17.70;66.13
79048;BME280;68680;50.764;6.120;2023-05-07T08:13:33;99442.81;;;17.90;65.23
79048;BME280;68680;50.764;6.120;2023-05-07T08:15:59;99446.59;;;18.04;63.38
79048;BME280;68680;50.764;6.120;2023-05-07T08:18:25;99449.28;;;17.89;65.07
79048;BME280;68680;50.764;6.120;2023-05-07T08:20:51;99460.66;;;17.86;65.76
79048;BME280;68680;50.764;6.120;2023-05-07T08:23:17;99444.41;;;18.01;65.68
79048;BME280;68680;50.764;6.120;2023-05-07T08:25:42;99452.25;;;18.08;64.01
79048;BME280;68680;50.764;6.120;2023-05-07T08:28:08;99452.50;;;18.21;63.99
79048;BME280;68680;50.764;6.120;2023-05-07T08:30:35;99445.72;;;18.34;62.32
79048;BME280;68680;50.764;6.120;2023-05-07T08:33:01;99436.31;;;18.11;65.24
79048;BME280;68680;50.764;6.120;2023-05-07T08:35:27;99445.69;;;18.44;63.10
79048;BME280;68680;50.764;6.120;2023-05-07T08:37:53;99442.69;;;18.51;63.06
79048;BME280;68680;50.764;6.120;2023-05-07T08:40:20;99449.66;;;18.72;61.51
79048;BME280;68680;50.764;6.120;2023-05-07T08:42:49;99451.47;;;18.81;60.05
79048;BME280;68680;50.764;6.120;2023-05-07T08:45:15;99448.63;;;18.63;62.79
79048;BME280;68680;50.764;6.120;2023-05-07T08:47:47;99454.06;;;18.37;63.54
79048;BME280;68680;50.764;6.120;2023-05-07T08:50:16;99443.78;;;18.55;61.55
79048;BME280;68680;50.764;6.120;2023-05-07T08:52:43;99447.25;;;18.65;62.51
79048;BME280;68680;50.764;6.120;2023-05-07T08:55:09;99432.41;;;18.63;61.64
79048;BME280;68680;50.764;6.120;2023-05-07T08:57:35;99445.91;;;18.63;63.70
79048;BME280;68680;50.764;6.120;2023-05-07T09:00:05;99448.50;;;18.83;61.92
79048;BME280;68680;50.764;6.120;2023-05-07T09:02:31;99446.72;;;19.12;58.92
79048;BME280;68680;50.764;6.120;2023-05-07T09:04:58;99449.41;;;19.17;58.99
79048;BME280;68680;50.764;6.120;2023-05-07T09:07:25;99439.66;;;19.21;59.25
79048;BME280;68680;50.764;6.120;2023-05-07T09:09:50;99456.63;;;19.32;59.99
79048;BME280;68680;50.764;6.120;2023-05-07T09:12:17;99446.38;;;19.24;60.43
79048;BME280;68680;50.764;6.120;2023-05-07T09:14:43;99438.50;;;19.33;60.26
79048;BME280;68680;50.764;6.120;2023-05-07T09:17:09;99443.03;;;19.76;56.22
79048;BME280;68680;50.764;6.120;2023-05-07T09:19:35;99446.59;;;19.33;57.91
79048;BME280;68680;50.764;6.120;2023-05-07T09:22:04;99442.91;;;19.18;60.68
79048;BME280;68680;50.764;6.120;2023-05-07T09:24:30;99448.75;;;19.36;58.58
79048;BME280;68680;50.764;6.120;2023-05-07T09:26:58;99448.09;;;19.54;55.77
79048;BME280;68680;50.764;6.120;2023-05-07T09:29:24;99452.59;;;19.24;58.79
79048;BME280;68680;50.764;6.120;2023-05-07T09:31:50;99456.63;;;19.32;56.45
79048;BME280;68680;50.764;6.120;2023-05-07T09:34:16;99456.53;;;19.42;56.29
79048;BME280;68680;50.764;6.120;2023-05-07T09:36:42;99450.91;;;19.34;56.85
79048;BME280;68680;50.764;6.120;2023-05-07T09:39:09;99451.44;;;19.36;55.96
79048;BME280;68680;50.764;6.120;2023-05-07T09:41:50;99449.28;;;19.38;56.11
79048;BME280;68680;50.764;6.120;2023-05-07T09:44:16;99452.75;;;19.43;56.38
79048;BME280;68680;50.764;6.120;2023-05-07T09:46:43;99450.16;;;19.23;59.71
79048;BME280;68680;50.764;6.120;2023-05-07T09:49:17;99454.38;;;19.00;60.95
79048;BME280;68680;50.764;6.120;2023-05-07T09:51:49;99454.13;;;18.97;62.19
79048;BME280;68680;50.764;6.120;2023-05-07T09:54:17;99456.66;;;19.22;61.53
79048;BME280;68680;50.764;6.120;2023-05-07T09:56:44;99457.06;;;19.49;58.32
79048;BME280;68680;50.764;6.120;2023-05-07T09:59:13;99450.59;;;19.45;58.38
79048;BME280;68680;50.764;6.120;2023-05-07T10:01:41;99460.03;;;19.48;58.03
79048;BME280;68680;50.764;6.120;2023-05-07T10:04:07;99455.13;;;19.55;58.43
79048;BME280;68680;50.764;6.120;2023-05-07T10:06:34;99455.53;;;19.72;57.66
79048;BME280;68680;50.764;6.120;2023-05-07T10:09:00;99452.72;;;19.82;56.77
79048;BME280;68680;50.764;6.120;2023-05-07T10:11:29;99456.34;;;19.73;57.76
79048;BME280;68680;50.764;6.120;2023-05-07T10:13:55;99458.22;;;19.72;57.84
79048;BME280;68680;50.764;6.120;2023-05-07T10:16:22;99460.34;;;19.75;57.52
79048;BME280;68680;50.764;6.120;2023-05-07T10:18:50;99463.25;;;19.55;56.64
79048;BME280;68680;50.764;6.120;2023-05-07T10:21:19;99460.84;;;19.48;58.86
79048;BME280;68680;50.764;6.120;2023-05-07T10:23:49;99466.41;;;19.67;57.74
79048;BME280;68680;50.764;6.120;2023-05-07T10:26:18;99469.03;;;19.38;59.38
79048;BME280;68680;50.764;6.120;2023-05-07T10:28:53;99463.13;;;19.70;58.22
79048;BME280;68680;50.764;6.120;2023-05-07T10:31:52;99463.28;;;19.84;56.77
79048;BME280;68680;50.764;6.120;2023-05-07T10:34:25;99475.03;;;19.98;55.21
79048;BME280;68680;50.764;6.120;2023-05-07T10:36:55;99467.69;;;20.03;55.60
79048;BME280;68680;50.764;6.120;2023-05-07T10:39:21;99476.34;;;20.05;54.99
79048;BME280;68680;50.764;6.120;2023-05-07T10:41:48;99473.19;;;19.93;56.88
79048;BME280;68680;50.764;6.120;2023-05-07T10:44:27;99472.91;;;19.95;53.20
79048;BME280;68680;50.764;6.120;2023-05-07T10:47:07;99474.81;;;19.94;55.43
79048;BME280;68680;50.764;6.120;2023-05-07T10:49:33;99478.44;;;20.14;53.50
79048;BME280;68680;50.764;6.120;2023-05-07T10:52:17;99470.81;;;20.16;52.55
79048;BME280;68680;50.764;6.120;2023-05-07T10:54:45;99475.31;;;19.67;54.49
79048;BME280;68680;50.764;6.120;2023-05-07T10:57:35;99472.66;;;19.62;55.08
79048;BME280;68680;50.764;6.120;2023-05-07T11:00:03;99477.56;;;19.89;56.59
79048;BME280;68680;50.764;6.120;2023-05-07T11:03:05;99481.47;;;19.78;58.38
79048;BME280;68680;50.764;6.120;2023-05-07T11:05:32;99477.63;;;19.50;60.81
79048;BME280;68680;50.764;6.120;2023-05-07T11:07:59;99477.69;;;19.35;60.09
79048;BME280;68680;50.764;6.120;2023-05-07T11:10:48;99478.75;;;19.39;58.92
79048;BME280;68680;50.764;6.120;2023-05-07T11:13:15;99473.34;;;19.39;57.32
79048;BME280;68680;50.764;6.120;2023-05-07T11:15:46;99472.84;;;19.32;59.02
79048;BME280;68680;50.764;6.120;2023-05-07T11:18:13;99478.03;;;19.23;60.61
79048;BME280;68680;50.764;6.120;2023-05-07T11:20:55;99471.03;;;19.17;58.79
79048;BME280;68680;50.764;6.120;2023-05-07T11:23:59;99472.97;;;19.07;60.83
79048;BME280;68680;50.764;6.120;2023-05-07T11:26:26;99475.19;;;19.00;61.50
79048;BME280;68680;50.764;6.120;2023-05-07T11:28:53;99481.75;;;18.83;62.20
79048;BME280;68680;50.764;6.120;2023-05-07T11:31:26;99484.50;;;18.73;63.64
79048;BME280;68680;50.764;6.120;2023-05-07T11:33:53;99481.00;;;18.68;64.56
79048;BME280;68680;50.764;6.120;2023-05-07T11:36:21;99484.28;;;18.60;62.73
79048;BME280;68680;50.764;6.120;2023-05-07T11:38:47;99482.94;;;18.57;62.67
79048;BME280;68680;50.764;6.120;2023-05-07T11:41:13;99485.38;;;18.43;63.29
79048;BME280;68680;50.764;6.120;2023-05-07T11:43:54;99489.13;;;18.47;63.84
79048;BME280;68680;50.764;6.120;2023-05-07T11:46:20;99493.81;;;18.17;64.64
79048;BME280;68680;50.764;6.120;2023-05-07T11:48:48;99498.41;;;18.16;64.67
79048;BME280;68680;50.764;6.120;2023-05-07T11:51:19;99496.22;;;18.18;66.53
79048;BME280;68680;50.764;6.120;2023-05-07T11:53:45;99498.94;;;18.13;67.64
79048;BME280;68680;50.764;6.120;2023-05-07T11:56:13;99501.91;;;18.22;64.34
79048;BME280;68680;50.764;6.120;2023-05-07T11:58:40;99504.84;;;18.30;65.77
79048;BME280;68680;50.764;6.120;2023-05-07T12:01:08;99501.09;;;18.06;70.09
79048;BME280;68680;50.764;6.120;2023-05-07T12:03:34;99507.59;;;17.85;72.56
79048;BME280;68680;50.764;6.120;2023-05-07T12:06:02;99516.47;;;17.65;73.70
79048;BME280;68680;50.764;6.120;2023-05-07T12:08:28;99520.53;;;17.68;73.82
79048;BME280;68680;50.764;6.120;2023-05-07T12:10:54;99513.50;;;17.61;74.54
79048;BME280;68680;50.764;6.120;2023-05-07T12:13:22;99527.25;;;17.65;74.68
79048;BME280;68680;50.764;6.120;2023-05-07T12:15:51;99529.69;;;17.61;74.50
79048;BME280;68680;50.764;6.120;2023-05-07T12:18:17;99530.75;;;17.60;74.23
79048;BME280;68680;50.764;6.120;2023-05-07T12:20:43;99531.31;;;17.62;75.02
79048;BME280;68680;50.764;6.120;2023-05-07T12:23:12;99534.28;;;17.61;75.61
79048;BME280;68680;50.764;6.120;2023-05-07T12:25:39;99537.19;;;17.59;75.47
79048;BME280;68680;50.764;6.120;2023-05-07T12:28:07;99534.56;;;17.75;76.62
79048;BME280;68680;50.764;6.120;2023-05-07T12:30:37;99536.75;;;17.88;75.46
79048;BME280;68680;50.764;6.120;2023-05-07T12:33:03;99530.25;;;18.04;75.67
79048;BME280;68680;50.764;6.120;2023-05-07T12:35:29;99529.72;;;18.07;75.68
79048;BME280;68680;50.764;6.120;2023-05-07T12:37:56;99539.97;;;17.95;75.84
79048;BME280;68680;50.764;6.120;2023-05-07T12:40:23;99542.09;;;17.73;75.73
79048;BME280;68680;50.764;6.120;2023-05-07T12:42:53;99539.72;;;17.76;76.87
79048;BME280;68680;50.764;6.120;2023-05-07T12:45:19;99548.31;;;17.73;76.02
79048;BME280;68680;50.764;6.120;2023-05-07T12:47:45;99550.75;;;17.75;75.27
79048;BME280;68680;50.764;6.120;2023-05-07T12:50:11;99540.22;;;17.88;74.65
79048;BME280;68680;50.764;6.120;2023-05-07T12:52:38;99541.31;;;18.08;74.40
79048;BME280;68680;50.764;6.120;2023-05-07T12:55:08;99542.66;;;18.30;73.68
79048;BME280;68680;50.764;6.120;2023-05-07T12:57:39;99545.91;;;18.32;72.42
79048;BME280;68680;50.764;6.120;2023-05-07T13:00:07;99543.97;;;18.48;72.76